Terminal Aerodrome Forecast
Issued by NWS Louisville, KY

Home | Current Version | Previous Version | Text Only | Print | Product List | Glossary On
Versions: 1 2 3 4 5 6 7 8 9 10 11 12 13 14 15 16 17
000
FTUS43 KLMK 201900 AAA
TAFSDF
TAF AMD
KSDF 201912Z 2019/2124 VRB03KT P6SM BKN060
      TEMPO 2019/2021 BKN023
     FM211100 06004KT 6SM BR SCT040
     FM211500 09004KT P6SM SCT040=

USA.gov is the U.S. government's official web portal to all federal, state and local government web resources and services.